createdAt,value
2023-04-27T00:01:58.549Z,72.40
2023-04-27T00:04:26.756Z,73.00
2023-04-27T00:06:54.757Z,76.00
2023-04-27T00:09:22.671Z,80.60
2023-04-27T00:11:50.561Z,79.30
2023-04-27T00:14:28.385Z,76.60
2023-04-27T00:16:56.272Z,75.00
2023-04-27T00:19:26.911Z,72.70
2023-04-27T00:22:03.921Z,74.30
2023-04-27T00:24:31.922Z,75.00
2023-04-27T00:27:03.033Z,77.50
2023-04-27T00:29:35.097Z,81.10
2023-04-27T00:32:05.814Z,74.80
2023-04-27T00:34:33.712Z,72.90
2023-04-27T00:37:06.418Z,72.40
2023-04-27T00:39:37.758Z,70.30
2023-04-27T00:42:14.072Z,71.00
2023-04-27T00:44:48.681Z,71.10
2023-04-27T00:47:17.852Z,77.40
2023-04-27T00:49:51.716Z,78.20
2023-04-27T00:52:22.388Z,73.50
2023-04-27T00:54:53.709Z,74.00
2023-04-27T00:57:23.221Z,74.50
2023-04-27T00:59:52.742Z,74.40
2023-04-27T01:02:20.773Z,80.90
2023-04-27T01:04:50.446Z,78.30
2023-04-27T01:07:18.397Z,73.20
2023-04-27T01:09:52.432Z,71.40
2023-04-27T01:12:20.324Z,71.30
2023-04-27T01:15:00.049Z,72.30
2023-04-27T01:17:28.007Z,73.00
2023-04-27T01:19:59.006Z,74.30
2023-04-27T01:22:27.072Z,81.30
2023-04-27T01:24:56.317Z,81.80
2023-04-27T01:27:27.450Z,78.20
2023-04-27T01:29:58.140Z,75.20
2023-04-27T01:32:26.764Z,77.10
2023-04-27T01:35:02.953Z,80.30
2023-04-27T01:37:35.651Z,72.60
2023-04-27T01:40:06.616Z,71.20
2023-04-27T01:42:34.538Z,71.40
2023-04-27T01:45:05.224Z,72.00
2023-04-27T01:47:38.529Z,72.70
2023-04-27T01:50:12.558Z,75.60
2023-04-27T01:52:40.459Z,78.90
2023-04-27T01:55:11.117Z,73.80
2023-04-27T01:57:42.128Z,73.20
2023-04-27T02:00:15.595Z,74.10
2023-04-27T02:02:57.609Z,77.10
2023-04-27T02:05:31.626Z,81.60
2023-04-27T02:08:02.299Z,78.00
2023-04-27T02:10:35.537Z,74.90
2023-04-27T02:13:06.083Z,73.70
2023-04-27T02:15:35.300Z,74.40
2023-04-27T02:18:04.627Z,77.90
2023-04-27T02:20:32.769Z,81.70
2023-04-27T02:23:00.967Z,76.00
2023-04-27T02:25:29.341Z,75.10
2023-04-27T02:28:01.914Z,75.00
2023-04-27T02:30:33.075Z,75.20
2023-04-27T02:33:03.743Z,80.20
2023-04-27T02:35:37.437Z,81.00
2023-04-27T02:38:05.343Z,77.90
2023-04-27T02:40:33.424Z,76.60
2023-04-27T02:43:02.716Z,74.80
2023-04-27T02:45:50.710Z,76.20
2023-04-27T02:48:18.642Z,80.90
2023-04-27T02:50:46.807Z,78.40
2023-04-27T02:53:17.498Z,74.30
2023-04-27T02:55:51.705Z,74.60
2023-04-27T02:58:26.640Z,77.20
2023-04-27T03:00:58.062Z,84.80
2023-04-27T03:03:26.119Z,85.20
2023-04-27T03:05:54.273Z,84.10
2023-04-27T03:08:25.208Z,83.80
2023-04-27T03:10:53.074Z,77.80
2023-04-27T03:13:25.417Z,79.10
2023-04-27T03:15:56.378Z,82.70
2023-04-27T03:18:24.286Z,82.30
2023-04-27T03:20:54.579Z,83.60
2023-04-27T03:23:25.513Z,83.70
2023-04-27T03:25:56.169Z,78.80
2023-04-27T03:28:28.624Z,76.60
2023-04-27T03:30:58.758Z,77.70
2023-04-27T03:33:30.342Z,76.70
2023-04-27T03:35:58.930Z,73.80
2023-04-27T03:38:29.983Z,74.80
2023-04-27T03:40:58.102Z,78.80
2023-04-27T03:43:47.415Z,75.80
2023-04-27T03:46:16.660Z,77.20
2023-04-27T03:48:47.079Z,76.10
2023-04-27T03:51:14.966Z,78.40
2023-04-27T03:53:42.808Z,80.40
2023-04-27T03:56:10.699Z,83.60
2023-04-27T03:58:38.558Z,81.50
2023-04-27T04:01:10.023Z,78.00
2023-04-27T04:03:39.512Z,80.90
2023-04-27T04:06:07.683Z,83.30
2023-04-27T04:08:38.356Z,84.20
2023-04-27T04:11:06.404Z,84.50
2023-04-27T04:13:35.875Z,84.20
2023-04-27T04:16:04.878Z,83.40
2023-04-27T04:18:32.794Z,84.00
2023-04-27T04:21:04.876Z,83.90
2023-04-27T04:23:35.860Z,80.40
2023-04-27T04:26:03.834Z,79.10
2023-04-27T04:28:38.248Z,81.10
2023-04-27T04:31:13.404Z,83.40
2023-04-27T04:33:41.271Z,77.40
2023-04-27T04:36:11.108Z,76.10
2023-04-27T04:38:44.953Z,79.70
2023-04-27T04:41:15.752Z,84.80
2023-04-27T04:43:48.218Z,84.90
2023-04-27T04:46:16.534Z,84.50
2023-04-27T04:48:44.750Z,84.50
2023-04-27T04:51:16.980Z,84.40
2023-04-27T04:53:50.917Z,79.60
2023-04-27T04:56:19.011Z,81.80
2023-04-27T04:58:46.907Z,83.90
2023-04-27T05:01:17.956Z,78.90
2023-04-27T05:03:45.941Z,77.30
2023-04-27T05:06:18.422Z,77.50
2023-04-27T05:08:49.553Z,76.70
2023-04-27T05:11:23.299Z,77.40
2023-04-27T05:13:56.999Z,78.50
2023-04-27T05:16:26.387Z,79.40
2023-04-27T05:18:54.768Z,83.60
2023-04-27T05:21:26.840Z,79.10
2023-04-27T05:23:54.714Z,77.70
2023-04-27T05:26:28.636Z,77.40
2023-04-27T05:28:56.566Z,78.30
2023-04-27T05:31:24.465Z,77.50
2023-04-27T05:33:58.128Z,76.90
2023-04-27T05:36:29.673Z,77.40
2023-04-27T05:38:57.625Z,78.80
2023-04-27T05:41:25.677Z,78.10
2023-04-27T05:43:56.580Z,76.70
2023-04-27T05:46:24.541Z,76.70
2023-04-27T05:48:52.522Z,78.00
2023-04-27T05:51:20.760Z,77.60
2023-04-27T05:53:50.005Z,78.20
2023-04-27T05:56:17.856Z,80.90
2023-04-27T05:58:46.036Z,78.90
2023-04-27T06:01:14.001Z,78.50
2023-04-27T06:03:42.117Z,78.40
2023-04-27T06:06:10.271Z,80.30
2023-04-27T06:08:41.216Z,78.90
2023-04-27T06:11:10.693Z,78.90
2023-04-27T06:13:38.562Z,79.70
2023-04-27T06:16:12.255Z,77.40
2023-04-27T06:18:42.951Z,77.20
2023-04-27T06:21:11.109Z,77.10
2023-04-27T06:23:41.962Z,78.20
2023-04-27T06:26:11.473Z,79.80
2023-04-27T06:28:44.971Z,78.70
2023-04-27T06:31:12.891Z,76.90
2023-04-27T06:33:41.344Z,74.70
2023-04-27T06:36:09.467Z,75.50
2023-04-27T06:38:37.337Z,74.40
2023-04-27T06:41:05.505Z,75.40
2023-04-27T06:43:34.753Z,74.60
2023-04-27T06:46:02.995Z,72.60
2023-04-27T06:48:31.223Z,76.50
2023-04-27T06:51:05.562Z,74.50
2023-04-27T06:53:33.485Z,73.60
2023-04-27T06:56:01.718Z,73.50
2023-04-27T06:58:29.588Z,73.20
2023-04-27T07:00:58.824Z,73.30
2023-04-27T07:03:26.811Z,71.90
2023-04-27T07:06:00.776Z,70.00
2023-04-27T07:08:28.621Z,71.10
2023-04-27T07:10:57.161Z,71.20
2023-04-27T07:13:25.170Z,69.50
2023-04-27T07:15:58.642Z,69.80
2023-04-27T07:18:28.398Z,68.10
2023-04-27T07:20:57.883Z,68.80
2023-04-27T07:23:25.847Z,69.90
2023-04-27T07:25:54.099Z,70.00
2023-04-27T07:28:25.056Z,70.80
2023-04-27T07:30:53.122Z,69.70
2023-04-27T07:33:22.177Z,68.50
2023-04-27T07:35:53.149Z,67.80
2023-04-27T07:38:21.095Z,75.80
2023-04-27T07:40:49.736Z,70.00
2023-04-27T07:43:25.644Z,68.90
2023-04-27T07:45:54.391Z,70.00
2023-04-27T07:48:25.452Z,69.40
2023-04-27T07:50:57.760Z,67.30
2023-04-27T07:53:25.742Z,68.30
2023-04-27T07:55:53.842Z,68.40
2023-04-27T07:58:27.695Z,67.40
2023-04-27T08:01:04.876Z,67.80
2023-04-27T08:03:32.916Z,65.60
2023-04-27T08:06:12.072Z,67.10
2023-04-27T08:08:42.955Z,65.30
2023-04-27T08:11:13.704Z,63.70
2023-04-27T08:13:43.362Z,63.50
2023-04-27T08:16:14.085Z,62.40
2023-04-27T08:18:41.984Z,62.50
2023-04-27T08:21:11.286Z,64.90
2023-04-27T08:23:48.129Z,65.70
2023-04-27T08:26:16.636Z,62.70
2023-04-27T08:28:45.789Z,62.30
2023-04-27T08:31:14.020Z,61.50
2023-04-27T08:33:41.947Z,63.80
2023-04-27T08:36:21.055Z,62.40
2023-04-27T08:38:48.890Z,65.10
2023-04-27T08:41:23.214Z,64.30
2023-04-27T08:43:53.271Z,63.00
2023-04-27T08:46:22.321Z,61.70
2023-04-27T08:48:56.904Z,65.70
2023-04-27T08:51:29.718Z,64.00
2023-04-27T08:53:58.829Z,62.50
2023-04-27T08:56:28.029Z,63.50
2023-04-27T08:58:57.286Z,63.10
2023-04-27T09:01:27.434Z,62.10
2023-04-27T09:04:00.056Z,60.90
2023-04-27T09:06:33.028Z,60.20
2023-04-27T09:09:01.543Z,59.20
2023-04-27T09:11:45.576Z,61.70
2023-04-27T09:14:20.976Z,63.40
2023-04-27T09:16:59.230Z,60.90
2023-04-27T09:19:28.483Z,60.00
2023-04-27T09:22:08.435Z,57.40
2023-04-27T09:24:36.855Z,60.30
2023-04-27T09:27:05.786Z,60.00
2023-04-27T09:29:34.554Z,59.80
2023-04-27T09:32:03.496Z,59.10
2023-04-27T09:34:49.124Z,60.30
2023-04-27T09:37:22.062Z,58.60
2023-04-27T09:39:53.117Z,57.50
2023-04-27T09:42:21.163Z,59.70
2023-04-27T09:44:49.429Z,57.40
2023-04-27T09:47:17.923Z,56.10
2023-04-27T09:49:45.958Z,59.20
2023-04-27T09:52:13.881Z,58.70
2023-04-27T09:54:43.395Z,58.40
2023-04-27T09:57:22.894Z,59.60
2023-04-27T10:00:11.934Z,57.80
2023-04-27T10:02:54.447Z,60.40
2023-04-27T10:05:54.670Z,58.90
2023-04-27T10:08:22.628Z,57.80
2023-04-27T10:10:56.479Z,57.10
2023-04-27T10:13:26.094Z,58.70
2023-04-27T10:15:56.733Z,57.20
2023-04-27T10:18:30.580Z,55.60
2023-04-27T10:21:13.011Z,55.60
2023-04-27T10:23:48.294Z,55.40
2023-04-27T10:26:25.110Z,59.30
2023-04-27T10:29:05.421Z,55.90
2023-04-27T10:31:33.823Z,56.50
2023-04-27T10:34:12.400Z,59.00
2023-04-27T10:36:41.350Z,59.00
2023-04-27T10:39:18.369Z,56.50
2023-04-27T10:41:54.972Z,54.80
2023-04-27T10:44:30.710Z,54.50
2023-04-27T10:47:03.120Z,55.70
2023-04-27T10:49:31.882Z,61.80
2023-04-27T10:52:04.798Z,56.00
2023-04-27T10:54:33.358Z,55.30
2023-04-27T10:57:06.837Z,54.60
2023-04-27T10:59:51.047Z,54.10
2023-04-27T11:02:25.816Z,58.10
2023-04-27T11:05:02.498Z,53.60
2023-04-27T11:07:33.728Z,51.50
2023-04-27T11:10:03.661Z,52.70
2023-04-27T11:12:36.506Z,69.50
2023-04-27T11:15:05.584Z,60.20
2023-04-27T11:17:51.656Z,52.60
2023-04-27T11:20:27.961Z,54.40
2023-04-27T11:22:59.086Z,51.40
2023-04-27T11:25:36.780Z,59.30
2023-04-27T11:28:06.393Z,58.70
2023-04-27T11:30:56.703Z,63.50
2023-04-27T11:33:24.729Z,51.00
2023-04-27T11:35:54.793Z,54.10
2023-04-27T11:38:22.766Z,53.50
2023-04-27T11:41:01.471Z,51.50
2023-04-27T11:43:30.725Z,52.40
2023-04-27T11:45:59.251Z,52.20
2023-04-27T11:48:28.659Z,51.50
2023-04-27T11:51:01.086Z,52.60
2023-04-27T11:53:33.047Z,53.20
2023-04-27T11:56:02.503Z,52.40
2023-04-27T11:58:33.888Z,53.80
2023-04-27T12:01:08.391Z,57.90
2023-04-27T12:03:36.612Z,55.60
2023-04-27T12:06:22.079Z,55.30
2023-04-27T12:09:05.142Z,52.60
2023-04-27T12:11:33.636Z,53.20
2023-04-27T12:14:14.259Z,53.80
2023-04-27T12:16:42.367Z,53.80
2023-04-27T12:19:12.892Z,54.20
2023-04-27T12:21:46.606Z,55.30
2023-04-27T12:24:17.655Z,54.40
2023-04-27T12:26:57.987Z,53.20
2023-04-27T12:29:30.159Z,53.90
2023-04-27T12:32:00.936Z,53.50
2023-04-27T12:34:29.248Z,53.60
2023-04-27T12:37:03.297Z,52.50
2023-04-27T12:39:37.365Z,51.90
2023-04-27T12:42:08.309Z,52.10
2023-04-27T12:44:41.258Z,53.20
2023-04-27T12:47:09.199Z,51.10
2023-04-27T12:49:37.828Z,50.10
2023-04-27T12:52:06.101Z,59.10
2023-04-27T12:54:33.987Z,57.50
2023-04-27T12:57:06.389Z,52.40
2023-04-27T12:59:34.380Z,53.90
2023-04-27T13:02:04.792Z,52.50
2023-04-27T13:04:33.249Z,54.30
2023-04-27T13:07:04.020Z,53.20
2023-04-27T13:09:31.872Z,52.80
2023-04-27T13:12:01.579Z,53.10
2023-04-27T13:14:30.183Z,52.90
2023-04-27T13:16:58.092Z,53.10
2023-04-27T13:19:27.339Z,53.50
2023-04-27T13:21:55.200Z,53.20
2023-04-27T13:24:24.478Z,51.60
2023-04-27T13:26:52.330Z,51.50
2023-04-27T13:29:20.341Z,53.90
2023-04-27T13:31:48.641Z,52.60
2023-04-27T13:34:16.772Z,52.90
2023-04-27T13:36:47.771Z,51.60
2023-04-27T13:39:17.178Z,54.30
2023-04-27T13:41:46.292Z,53.20
2023-04-27T13:44:14.412Z,52.00
2023-04-27T13:46:43.774Z,53.60
2023-04-27T13:49:11.789Z,53.80
2023-04-27T13:51:40.491Z,57.10
2023-04-27T13:54:10.195Z,55.80
2023-04-27T13:56:38.668Z,58.80
2023-04-27T13:59:06.549Z,52.40
2023-04-27T14:01:34.551Z,57.20
2023-04-27T14:04:02.832Z,60.70
2023-04-27T14:06:31.846Z,59.30
2023-04-27T14:08:59.843Z,57.80
2023-04-27T14:11:29.168Z,50.80
2023-04-27T14:14:00.002Z,47.70
2023-04-27T14:16:27.941Z,48.10
2023-04-27T14:18:58.841Z,49.20
2023-04-27T14:21:27.913Z,58.30
2023-04-27T14:23:55.768Z,50.60
2023-04-27T14:26:23.660Z,50.50
2023-04-27T14:28:58.485Z,49.30
2023-04-27T14:31:29.366Z,49.50
2023-04-27T14:34:00.476Z,49.60
2023-04-27T14:36:28.803Z,55.70
2023-04-27T14:38:56.757Z,55.70
2023-04-27T14:41:24.799Z,51.70
2023-04-27T14:43:54.146Z,50.30
2023-04-27T14:46:22.616Z,51.40
2023-04-27T14:48:51.166Z,50.90
2023-04-27T14:51:28.737Z,51.00
2023-04-27T14:53:59.756Z,50.20
2023-04-27T14:56:27.681Z,53.60
2023-04-27T14:58:56.874Z,50.20
2023-04-27T15:01:27.868Z,56.80
2023-04-27T15:03:57.904Z,51.20
2023-04-27T15:06:28.058Z,50.70
2023-04-27T15:09:01.743Z,50.80
2023-04-27T15:11:29.632Z,52.70
2023-04-27T15:13:58.858Z,51.30
2023-04-27T15:16:26.867Z,49.70
2023-04-27T15:18:57.972Z,50.80
2023-04-27T15:21:27.989Z,51.20
2023-04-27T15:23:55.873Z,54.40
2023-04-27T15:26:23.837Z,51.20
2023-04-27T15:28:51.865Z,52.10
2023-04-27T15:31:21.195Z,51.00
2023-04-27T15:33:49.136Z,50.60
2023-04-27T15:36:17.435Z,51.70
2023-04-27T15:38:51.817Z,51.00
2023-04-27T15:41:22.593Z,52.00
2023-04-27T15:43:52.247Z,53.30
2023-04-27T15:46:21.553Z,52.40
2023-04-27T15:48:55.673Z,50.90
2023-04-27T15:51:28.592Z,53.20
2023-04-27T15:53:59.613Z,55.50
2023-04-27T15:56:30.524Z,52.30
2023-04-27T15:59:04.991Z,53.30
2023-04-27T16:01:34.408Z,52.60
2023-04-27T16:04:02.410Z,53.50
2023-04-27T16:06:36.338Z,52.30
2023-04-27T16:09:04.827Z,53.70
2023-04-27T16:11:38.950Z,51.70
2023-04-27T16:14:12.880Z,53.20
2023-04-27T16:16:51.923Z,54.10
2023-04-27T16:19:19.906Z,53.10
2023-04-27T16:21:53.919Z,52.30
2023-04-27T16:24:21.842Z,52.40
2023-04-27T16:27:03.441Z,53.00
2023-04-27T16:29:31.303Z,54.50
2023-04-27T16:32:01.134Z,53.40
2023-04-27T16:34:32.714Z,54.10
2023-04-27T16:37:00.667Z,53.70
2023-04-27T16:39:36.063Z,54.50
2023-04-27T16:42:04.120Z,55.00
2023-04-27T16:44:32.824Z,54.80
2023-04-27T16:47:02.065Z,54.70
2023-04-27T16:49:35.495Z,54.70
2023-04-27T16:52:03.396Z,54.80
2023-04-27T16:54:42.568Z,55.40
2023-04-27T16:57:13.210Z,55.00
2023-04-27T16:59:45.761Z,55.40
2023-04-27T17:02:24.635Z,56.20
2023-04-27T17:05:03.418Z,55.40
2023-04-27T17:07:32.643Z,55.10
2023-04-27T17:10:01.084Z,55.20
2023-04-27T17:12:40.956Z,55.50
2023-04-27T17:15:14.596Z,56.50
2023-04-27T17:17:46.471Z,55.90
2023-04-27T17:20:24.385Z,57.00
2023-04-27T17:22:55.171Z,54.90
2023-04-27T17:25:23.144Z,54.70
2023-04-27T17:28:03.675Z,56.20
2023-04-27T17:30:34.573Z,57.30
2023-04-27T17:33:03.980Z,55.80
2023-04-27T17:35:34.898Z,56.30
2023-04-27T17:38:08.374Z,56.40
2023-04-27T17:40:36.227Z,57.50
2023-04-27T17:43:07.173Z,57.10
2023-04-27T17:45:38.609Z,58.40
2023-04-27T17:48:13.579Z,56.20
2023-04-27T17:51:03.938Z,56.80
2023-04-27T17:53:29.931Z,57.10
2023-04-27T17:55:57.824Z,57.10
2023-04-27T17:58:25.792Z,57.30
2023-04-27T18:00:56.598Z,58.30
2023-04-27T18:03:26.957Z,57.10
2023-04-27T18:05:58.176Z,57.80
2023-04-27T18:08:26.083Z,58.00
2023-04-27T18:10:59.866Z,58.90
2023-04-27T18:13:28.337Z,57.80
2023-04-27T18:15:56.212Z,58.10
2023-04-27T18:18:26.760Z,62.00
2023-04-27T18:21:00.352Z,57.30
2023-04-27T18:23:31.269Z,57.20
2023-04-27T18:26:01.927Z,58.50
2023-04-27T18:28:37.827Z,60.40
2023-04-27T18:31:15.511Z,59.70
2023-04-27T18:33:48.133Z,57.40
2023-04-27T18:36:19.833Z,57.50
2023-04-27T18:38:48.168Z,59.50
2023-04-27T18:41:18.860Z,59.30
2023-04-27T18:43:46.745Z,56.70
2023-04-27T18:46:14.701Z,57.90
2023-04-27T18:48:42.628Z,60.10
2023-04-27T18:51:11.836Z,57.00
2023-04-27T18:53:45.973Z,58.20
2023-04-27T18:56:14.725Z,57.10
2023-04-27T18:58:50.234Z,57.80
2023-04-27T19:01:30.046Z,59.90
2023-04-27T19:04:00.379Z,57.70
2023-04-27T19:06:29.887Z,63.80
2023-04-27T19:08:57.815Z,58.50
2023-04-27T19:11:25.929Z,56.90
2023-04-27T19:13:53.951Z,62.60
2023-04-27T19:16:24.193Z,57.30
2023-04-27T19:18:52.083Z,57.50
2023-04-27T19:21:19.968Z,58.60
2023-04-27T19:23:52.254Z,58.40
2023-04-27T19:26:20.204Z,58.40
2023-04-27T19:29:03.062Z,58.20
2023-04-27T19:31:33.938Z,63.40
2023-04-27T19:34:04.325Z,59.40
2023-04-27T19:36:35.739Z,59.10
2023-04-27T19:39:13.295Z,58.50
2023-04-27T19:41:41.689Z,56.50
2023-04-27T19:44:09.546Z,56.00
2023-04-27T19:46:37.473Z,62.30
2023-04-27T19:49:11.192Z,59.10
2023-04-27T19:51:45.141Z,59.00
2023-04-27T19:54:14.767Z,61.40
2023-04-27T19:56:43.232Z,59.00
2023-04-27T19:59:11.131Z,62.90
2023-04-27T20:01:39.027Z,63.60
2023-04-27T20:04:13.029Z,58.20
2023-04-27T20:06:43.255Z,59.50
2023-04-27T20:09:11.223Z,59.60
2023-04-27T20:11:42.726Z,55.90
2023-04-27T20:14:13.743Z,55.20
2023-04-27T20:16:48.067Z,60.50
2023-04-27T20:19:19.214Z,58.40
2023-04-27T20:21:47.166Z,59.20
2023-04-27T20:24:19.420Z,65.10
2023-04-27T20:26:48.685Z,56.00
2023-04-27T20:29:16.692Z,58.30
2023-04-27T20:31:53.251Z,57.00
2023-04-27T20:34:23.957Z,59.30
2023-04-27T20:36:52.954Z,56.70
2023-04-27T20:39:21.088Z,56.90
2023-04-27T20:42:02.345Z,56.90
2023-04-27T20:44:47.015Z,66.00
2023-04-27T20:47:23.971Z,64.80
2023-04-27T20:49:54.882Z,60.40
2023-04-27T20:52:34.437Z,61.60
2023-04-27T20:55:09.418Z,60.00
2023-04-27T20:57:38.673Z,59.50
2023-04-27T21:00:08.899Z,57.70
2023-04-27T21:02:36.892Z,56.80
2023-04-27T21:05:05.166Z,62.80
2023-04-27T21:07:33.113Z,58.50
2023-04-27T21:10:05.929Z,55.90
2023-04-27T21:12:34.513Z,59.00
2023-04-27T21:15:03.880Z,57.50
2023-04-27T21:17:34.850Z,58.80
2023-04-27T21:20:02.832Z,64.70
2023-04-27T21:22:30.745Z,58.00
2023-04-27T21:24:58.631Z,57.80
2023-04-27T21:27:26.504Z,57.60
2023-04-27T21:29:57.108Z,59.40
2023-04-27T21:32:26.410Z,58.80
2023-04-27T21:34:56.760Z,59.00
2023-04-27T21:37:24.604Z,59.00
2023-04-27T21:39:54.990Z,59.30
2023-04-27T21:42:22.842Z,61.80
2023-04-27T21:44:59.736Z,64.70
2023-04-27T21:47:28.960Z,59.10
2023-04-27T21:49:56.868Z,60.50
2023-04-27T21:52:24.785Z,59.10
2023-04-27T21:54:55.401Z,61.40
2023-04-27T21:57:23.261Z,69.90
2023-04-27T21:59:53.324Z,69.80
2023-04-27T22:02:21.296Z,60.90
2023-04-27T22:05:04.936Z,67.00
2023-04-27T22:07:36.050Z,60.60
2023-04-27T22:10:03.998Z,61.70
2023-04-27T22:12:32.471Z,62.30
2023-04-27T22:15:00.370Z,60.80
2023-04-27T22:17:31.405Z,66.90
2023-04-27T22:20:11.093Z,64.70
2023-04-27T22:22:39.053Z,64.40
2023-04-27T22:25:16.270Z,71.40
2023-04-27T22:27:45.269Z,64.60
2023-04-27T22:30:20.959Z,68.80
2023-04-27T22:32:48.918Z,69.70
2023-04-27T22:35:26.581Z,64.20
2023-04-27T22:38:01.593Z,64.40
2023-04-27T22:40:32.371Z,69.10
2023-04-27T22:43:00.436Z,64.00
2023-04-27T22:45:32.976Z,64.60
2023-04-27T22:48:00.893Z,64.40
2023-04-27T22:50:30.517Z,65.30
2023-04-27T22:53:10.360Z,63.60
2023-04-27T22:55:38.227Z,63.40
2023-04-27T22:58:06.177Z,65.10
2023-04-27T23:00:40.402Z,69.10
2023-04-27T23:03:08.422Z,69.00
2023-04-27T23:05:40.360Z,65.40
2023-04-27T23:08:08.224Z,69.10
2023-04-27T23:10:38.731Z,67.70
2023-04-27T23:13:11.270Z,64.80
2023-04-27T23:15:41.382Z,65.70
2023-04-27T23:18:12.366Z,70.70
2023-04-27T23:20:43.900Z,66.70
2023-04-27T23:23:19.416Z,66.90
2023-04-27T23:25:47.268Z,66.30
2023-04-27T23:28:15.097Z,66.80
2023-04-27T23:30:43.032Z,65.90
2023-04-27T23:33:14.027Z,66.50
2023-04-27T23:35:43.246Z,69.00
2023-04-27T23:38:17.160Z,74.40
2023-04-27T23:40:47.196Z,69.90
2023-04-27T23:43:17.872Z,70.50
2023-04-27T23:45:50.658Z,71.60
2023-04-27T23:48:23.840Z,66.10
2023-04-27T23:51:02.414Z,67.30
2023-04-27T23:53:35.655Z,66.50
2023-04-27T23:56:03.524Z,68.30
2023-04-27T23:58:34.433Z,72.90
